My Zehava — ZGDT7 — position and weather

sailwx.info

Track history (hours):
 
Tides and Currents Weather Stations Pressure Air Temp Water Temp Dewpoint Dewpoint Depression Visibility Wind Speed Wind Dir Waves Ship Positions

My Zehava

Last reported at 2018-Apr-25 07:20 UTC. Time now 2018-Jun-24 04:48 UTC.
Position N 43°33' E 007°01'.
Warning: this ship's position is 59 days out of date.

Length 28 m; draft 2 m.

Type: Pleasure craft. MMSI: 319062500.

Date/timePositionNaut miles runAvg speedWind from/ knotsBaromVisibWave heightAir tempDewpointWater temp
2018-Apr-25 07:20N 43°33' E 007°01'0 0.0
2018-Apr-25 06:59N 43°33' E 007°01'0 0.0
2018-Apr-25 06:30N 43°33' E 007°01'0 0.0
2018-Apr-25 06:00N 43°33' E 007°01'0 0.0
2018-Apr-25 05:30N 43°33' E 007°01'0 0.0
2018-Apr-25 04:59N 43°33' E 007°01'0 0.0
2018-Apr-25 04:29N 43°33' E 007°01'0 0.0
2018-Apr-25 04:00N 43°33' E 007°01'0 0.0
2018-Apr-25 03:30N 43°33' E 007°01'0 0.0
2018-Apr-25 03:00N 43°33' E 007°01'0 0.0
2018-Apr-25 02:29N 43°33' E 007°01'0 0.0
2018-Apr-25 02:00N 43°33' E 007°01'0 0.0
2018-Apr-25 01:30N 43°33' E 007°01'0 0.0
2018-Apr-25 01:00N 43°33' E 007°01'0 0.0
2018-Apr-25 00:30N 43°33' E 007°01'0 0.0
2018-Apr-24 23:59N 43°33' E 007°01'0 0.0
2018-Apr-24 23:30N 43°33' E 007°01'0 0.0
2018-Apr-24 23:00N 43°33' E 007°01'0 0.0
2018-Apr-24 22:30N 43°33' E 007°01'0 0.0
2018-Apr-24 22:00N 43°33' E 007°01'0 0.0
2018-Apr-24 21:29N 43°33' E 007°01'0 0.0
2018-Apr-24 21:00N 43°33' E 007°01'0 0.0
2018-Apr-24 20:30N 43°33' E 007°01'0 0.0
2018-Apr-24 20:00N 43°33' E 007°01'0 0.0
2018-Apr-24 19:30N 43°33' E 007°01'0 0.0
2018-Apr-24 19:00N 43°33' E 007°01'0 0.0
2018-Apr-24 18:29N 43°33' E 007°01'0 0.0
2018-Apr-24 18:00N 43°33' E 007°01'0 0.0
2018-Apr-24 17:30N 43°33' E 007°01'0 0.0
2018-Apr-24 16:59N 43°33' E 007°01'0 0.0
2018-Apr-24 16:30N 43°33' E 007°01'0 0.0
2018-Apr-24 16:00N 43°33' E 007°01'0 0.0
2018-Apr-24 15:30N 43°33' E 007°01'0 0.0
2018-Apr-24 14:55N 43°33' E 007°01'0 0.7
2018-Apr-24 14:30N 43°33' E 007°01'1 2.8
2018-Apr-24 13:59N 43°32' E 007°03'8 0.4
2018-Apr-23 15:34N 43°35' E 007°13'4 8.5
2018-Apr-23 15:05N 43°32' E 007°08'1 8.5
2018-Apr-23 14:56N 43°32' E 007°06'3 7.9
2018-Apr-23 14:30N 43°32' E 007°02'1 0.2
2018-Apr-23 09:06N 43°33' E 007°01'0 0.3
2018-Apr-23 09:00N 43°33' E 007°01'2 5.0
2018-Apr-23 08:30N 43°32' E 007°04'6 8.6
2018-Apr-23 07:51N 43°35' E 007°11'15 1.2
2018-Apr-22 19:46N 43°44' E 007°26'0 0.0
2018-Apr-22 19:26N 43°44' E 007°26'0 0.0
2018-Apr-22 18:51N 43°44' E 007°26'0 0.0
2018-Apr-22 13:38N 43°44' E 007°26'0 0.0
2018-Apr-22 11:51N 43°44' E 007°26'0 1.2
2018-Apr-22 11:30N 43°44' E 007°26'0 0.1
2018-Apr-22 04:56N 43°44' E 007°26'0 0.0
2018-Apr-22 04:26N 43°44' E 007°26'  
Track history (hours):
 
Tides and Currents Weather Stations Pressure Air Temp Water Temp Dewpoint Dewpoint Depression Visibility Wind Speed Wind Dir Waves Ship Positions

My Zehava

Last reported at 2018-Apr-25 07:20 UTC. Time now 2018-Jun-24 04:48 UTC.
Position N 43°33' E 007°01'.
Warning: this ship's position is 59 days out of date.

Length 28 m; draft 2 m.

Type: Pleasure craft. MMSI: 319062500.

Date/timePositionNaut miles runAvg speedWind from/ knotsBaromVisibWave heightAir tempDewpointWater temp
2018-Apr-25 07:20N 43°33' E 007°01'0 0.0
2018-Apr-25 06:59N 43°33' E 007°01'0 0.0
2018-Apr-25 06:30N 43°33' E 007°01'0 0.0
2018-Apr-25 06:00N 43°33' E 007°01'0 0.0
2018-Apr-25 05:30N 43°33' E 007°01'0 0.0
2018-Apr-25 04:59N 43°33' E 007°01'0 0.0
2018-Apr-25 04:29N 43°33' E 007°01'0 0.0
2018-Apr-25 04:00N 43°33' E 007°01'0 0.0
2018-Apr-25 03:30N 43°33' E 007°01'0 0.0
2018-Apr-25 03:00N 43°33' E 007°01'0 0.0
2018-Apr-25 02:29N 43°33' E 007°01'0 0.0
2018-Apr-25 02:00N 43°33' E 007°01'0 0.0
2018-Apr-25 01:30N 43°33' E 007°01'0 0.0
2018-Apr-25 01:00N 43°33' E 007°01'0 0.0
2018-Apr-25 00:30N 43°33' E 007°01'0 0.0
2018-Apr-24 23:59N 43°33' E 007°01'0 0.0
2018-Apr-24 23:30N 43°33' E 007°01'0 0.0
2018-Apr-24 23:00N 43°33' E 007°01'0 0.0
2018-Apr-24 22:30N 43°33' E 007°01'0 0.0
2018-Apr-24 22:00N 43°33' E 007°01'0 0.0
2018-Apr-24 21:29N 43°33' E 007°01'0 0.0
2018-Apr-24 21:00N 43°33' E 007°01'0 0.0
2018-Apr-24 20:30N 43°33' E 007°01'0 0.0
2018-Apr-24 20:00N 43°33' E 007°01'0 0.0
2018-Apr-24 19:30N 43°33' E 007°01'0 0.0
2018-Apr-24 19:00N 43°33' E 007°01'0 0.0
2018-Apr-24 18:29N 43°33' E 007°01'0 0.0
2018-Apr-24 18:00N 43°33' E 007°01'0 0.0
2018-Apr-24 17:30N 43°33' E 007°01'0 0.0
2018-Apr-24 16:59N 43°33' E 007°01'0 0.0
2018-Apr-24 16:30N 43°33' E 007°01'0 0.0
2018-Apr-24 16:00N 43°33' E 007°01'0 0.0
2018-Apr-24 15:30N 43°33' E 007°01'0 0.0
2018-Apr-24 14:55N 43°33' E 007°01'0 0.7
2018-Apr-24 14:30N 43°33' E 007°01'1 2.8
2018-Apr-24 13:59N 43°32' E 007°03'8 0.4
2018-Apr-23 15:34N 43°35' E 007°13'4 8.5
2018-Apr-23 15:05N 43°32' E 007°08'1 8.5
2018-Apr-23 14:56N 43°32' E 007°06'3 7.9
2018-Apr-23 14:30N 43°32' E 007°02'1 0.2
2018-Apr-23 09:06N 43°33' E 007°01'0 0.3
2018-Apr-23 09:00N 43°33' E 007°01'2 5.0
2018-Apr-23 08:30N 43°32' E 007°04'6 8.6
2018-Apr-23 07:51N 43°35' E 007°11'15 1.2
2018-Apr-22 19:46N 43°44' E 007°26'0 0.0
2018-Apr-22 19:26N 43°44' E 007°26'0 0.0
2018-Apr-22 18:51N 43°44' E 007°26'0 0.0
2018-Apr-22 13:38N 43°44' E 007°26'0 0.0
2018-Apr-22 11:51N 43°44' E 007°26'0 1.2
2018-Apr-22 11:30N 43°44' E 007°26'0 0.1
2018-Apr-22 04:56N 43°44' E 007°26'0 0.0
2018-Apr-22 04:26N 43°44' E 007°26'  

Dump ship's entire track history